青森空港の過去48時間の天気

青森空港 (Aomori)

現在時刻: 6/3 20:35 JST (6/3 11:35 UTC) 以下の時間は現地時間です。

過去48時間のMETAR気象情報
時間 風向 風速(m/s) 視程 気温(℃) 湿度(%) 気圧(hPa) 天気現象
3 20:00 不定 1 10km以上 12 88 1006
3 19:00 北東 1 10km以上 16 77 1005
3 18:00 北東 3 10km以上 18 64 1005
3 17:00 北東 3 10km以上 20 53 1005
3 16:00 3 10km以上 21 49 1005
3 15:00 北東 2 10km以上 21 53 1005
3 14:00 北東 3 10km以上 19 68 1005
3 13:00 北東 4 10km以上 19 73 1006
3 12:00 北東 5 10km以上 19 73 1006
3 11:00 不定 2 10km以上 21 46 1006
3 10:00 西北西 2 10km以上 21 43 1006
3 09:00 不定 1 10km以上 19 60 1006
3 08:00 2 10km以上 18 60 1007
3 07:00 不定 1 10km以上 17 68 1007
3 06:40 不定 1 10km以上 16 77 1006
2 21:00 南西 5 10km以上 16 72 1007
2 20:00 南西 5 10km以上 17 63 1007
2 19:00 南西 5 10km以上 18 64 1006
2 18:00 南南西 7 10km以上 20 56 1006
2 17:00 南西 6 10km以上 21 53 1005
2 16:00 西南西 6 10km以上 21 53 1005
2 15:00 西南西 7 10km以上 23 47 1005
2 14:00 西南西 7 10km以上 22 50 1005
2 13:00 西南西 8 10km以上 24 47 1005
2 12:00 西南西 9 10km以上 23 47 1005
2 11:00 西 9 10km以上 22 50 1005
2 10:00 西南西 8 10km以上 22 50 1005
2 09:00 西南西 8 10km以上 21 56 1005
2 08:00 西南西 5 10km以上 19 78 1005
2 07:00 南南西 4 10km以上 18 83 1005
2 06:40 南南西 3 10km以上 18 83 1005
1 21:34 南西 3 5000m 16 88 1007 しゅう雨 もや
1 21:00 南西 4 10km以上 16 88 1007 弱いしゅう雨
RJSA 031100Z VRB01KT 9999 FEW030 BKN/// 12/10 Q1006
RJSA 031000Z 05002KT 9999 FEW030 SCT/// 16/12 Q1005
RJSA 030900Z 05005KT 9999 FEW030 SCT/// 18/11 Q1005
RJSA 030800Z 04005KT 360V070 9999 FEW030 20/10 Q1005
RJSA 030700Z 35006KT 300V030 9999 FEW030 BKN100 21/10 Q1005
RJSA 030600Z 05004KT 330V080 9999 FEW030 SCT090 BKN/// 21/11 Q1005
RJSA 030500Z 05006KT 020V100 9999 FEW030 SCT080 BKN140 19/13 Q1005
RJSA 030400Z 04008KT 360V070 9999 FEW030 BKN100 19/14 Q1006
RJSA 030300Z 05009KT 9999 FEW040 SCT080 BKN100 19/14 Q1006
RJSA 030200Z VRB03KT 9999 FEW050 BKN100 BKN150 21/09 Q1006
RJSA 030100Z 30003KT 200V020 9999 FEW020 SCT120 BKN/// 21/08 Q1006
RJSA 030000Z VRB02KT 9999 FEW020 BKN/// 19/11 Q1006
RJSA 022300Z 01003KT 330V090 9999 FEW030 BKN/// 18/10 Q1007
RJSA 022200Z VRB01KT 9999 FEW050 BKN/// 17/11 Q1007
RJSA 022140Z VRB01KT 9999 FEW050 SCT130 BKN/// 16/12 Q1006 RMK 1CU050 3AC130 A2973
RJSA 021200Z 23009KT 9999 FEW025 BKN/// 16/11 Q1007
RJSA 021100Z 22010KT 9999 FEW025 BKN/// 17/10 Q1007
RJSA 021000Z 22010KT 9999 FEW030 BKN/// 18/11 Q1006
RJSA 020900Z 20013KT 9999 FEW025 BKN/// 20/11 Q1006
RJSA 020800Z 22011KT 9999 FEW020 SCT040 BKN080 21/11 Q1005
RJSA 020700Z 24012KT 9999 FEW020 SCT050 BKN070 21/11 Q1005
RJSA 020600Z 25014KT 9999 FEW030 SCT050 BKN080 23/11 Q1005
RJSA 020500Z 25014KT 9999 FEW030 SCT050 22/11 Q1005
RJSA 020400Z 25016KT 220V280 9999 FEW030 24/12 Q1005
RJSA 020300Z 25018KT 9999 FEW030 23/11 Q1005
RJSA 020200Z 26018G29KT 9999 FEW020 SCT040 22/11 Q1005
RJSA 020100Z 24016KT 9999 FEW020 SCT040 BKN/// 22/11 Q1005
RJSA 020000Z 25015KT 9999 FEW010 SCT025 BKN/// 21/12 Q1005
RJSA 012300Z 25010KT 9999 FEW001 SCT025 BKN070 19/15 Q1005
RJSA 012200Z 21007KT 170V240 9999 FEW001 SCT030 BKN070 18/15 Q1005
RJSA 012140Z 20005KT 9999 FEW001 BKN030 BKN/// 18/15 Q1005 RMK 1ST001 5CU030 A2969
RJSA 011234Z 23006KT 5000 SHRA BR FEW010 SCT040 BKN050 16/14 Q1007 RMK 1ST010 3CU040 7CU050 A2975
RJSA 011200Z 22008KT 9999 -SHRA FEW020 FEW030CB SCT040 BKN050 16/14 Q1007